Alta, Indiana
Current Conditions -  °F | °C
As of 9:15 AM on Tuesday 21 Oct 2014 (Local Time) from KPRG Reporting Station
Haze Haze  
Wind Chill: 49°   Ceiling: 4800
Heat Index: 49°   Visibility: 5mi
Dew Point: 48°   Wind: 3mph
Humidity: 99%   Direction: 340°NNW
Pressure: 30.1"   Gusts: NA
Location:  39.7643°N, 87.4119°W
Report Text: KPRG 211315Z AUTO 34003KT 5SM BR OVC048 09/09 A3010 RMK AO2 T00920090
Loading
Personal Weather Stations






























Interactive Weather Map
Tropical Storm Tracking
New forecast layout! Learn more

10-Day Weather Forecast

Advertisements
Track Severe Weather on mobile